Time;durP1;ratioP1;P1;durP2;ratioP2;P2;SDS_P1;SDS_P2;PMS_P1;PMS_P2;Temp;Humidity;BMP_temperature;BMP_pressure;BME280_temperature;BME280_humidity;BME280_pressure;Samples;Min_cycle;Max_cycle;Signal;HPM_P1;HPM_P2
2022/11/19 00:01:27;;;;;;;24.65;13.23;;;;;;;3.70;71.21;98695.94;7738375;32;38048;-81
2022/11/19 00:05:46;;;;;;;23.17;13.70;;;;;;;2.97;73.52;98689.97;7738713;32;40145;-80
2022/11/19 00:10:03;;;;;;;20.12;10.63;;;;;;;3.66;71.22;98694.81;7738509;32;39630;-79
2022/11/19 00:14:19;;;;;;;23.85;13.02;;;;;;;3.37;71.58;98699.59;7738415;32;38044;-79
2022/11/19 00:18:35;;;;;;;24.02;14.05;;;;;;;2.90;73.89;98713.53;7724201;32;37933;-80
2022/11/19 00:22:53;;;;;;;22.87;13.23;;;;;;;3.64;71.99;98707.75;7737614;32;39432;-80
2022/11/19 00:27:09;;;;;;;23.35;12.55;;;;;;;3.66;71.38;98716.38;7738313;32;39990;-80
2022/11/19 00:31:26;;;;;;;23.75;12.52;;;;;;;3.67;70.57;98722.56;7738254;32;37917;-80
2022/11/19 00:35:42;;;;;;;26.33;14.20;;;;;;;3.70;70.21;98733.66;7738293;32;37236;-79
2022/11/19 00:39:59;;;;;;;24.67;13.45;;;;;;;3.18;71.45;98758.37;7737957;32;39540;-79
2022/11/19 00:44:15;;;;;;;28.33;14.32;;;;;;;3.05;71.90;98764.91;7737800;32;39985;-80
2022/11/19 00:48:31;;;;;;;29.73;13.95;;;;;;;3.24;70.72;98770.81;7737986;32;38592;-80
2022/11/19 00:52:48;;;;;;;39.75;14.43;;;;;;;3.31;68.64;98774.19;7737947;32;37418;-80
2022/11/19 00:57:04;;;;;;;26.08;13.48;;;;;;;2.61;71.55;98776.38;7737993;32;39064;-79
2022/11/19 01:01:23;;;;;;;27.50;13.62;;;;;;;2.64;71.47;98775.06;7737385;32;40757;-79
2022/11/19 01:05:39;;;;;;;26.98;14.27;;;;;;;2.54;71.75;98778.41;7737796;32;37972;-80
2022/11/19 01:09:55;;;;;;;31.48;14.63;;;;;;;2.75;71.57;98776.03;7737769;32;38217;-80
2022/11/19 01:14:12;;;;;;;27.85;14.35;;;;;;;2.69;71.13;98774.31;7737646;32;39404;-80
2022/11/19 01:18:28;;;;;;;29.05;14.30;;;;;;;2.96;70.07;98786.03;7723864;32;41222;-79
2022/11/19 01:22:45;;;;;;;26.08;14.48;;;;;;;2.46;71.04;98791.44;7737276;32;37599;-80
2022/11/19 01:27:01;;;;;;;27.10;15.52;;;;;;;2.87;69.41;98776.78;7737532;32;37986;-81
2022/11/19 01:31:23;;;;;;;30.35;15.77;;;;;;;2.38;70.68;98790.78;7737194;32;39436;-80
2022/11/19 01:35:39;;;;;;;30.00;15.90;;;;;;;2.41;70.79;98800.22;7737485;32;40884;-80
2022/11/19 01:39:56;;;;;;;34.95;15.80;;;;;;;2.13;72.09;98818.03;7737059;32;38684;-79
2022/11/19 01:44:55;;;;;;;28.73;16.23;;;;;;;2.55;70.91;98825.78;7736588;32;37266;-81
2022/11/19 01:49:18;;;;;;;31.37;16.15;;;;;;;2.50;71.73;98833.78;7729073;32;40119;-80
2022/11/19 01:53:35;;;;;;;32.88;16.48;;;;;;;1.86;73.35;98845.50;7723035;32;39743;-78
2022/11/19 01:57:58;;;;;;;27.05;14.80;;;;;;;2.38;71.20;98847.28;7725799;32;37916;-79
2022/11/19 02:02:15;;;;;;;27.60;14.95;;;;;;;2.38;70.62;98836.53;7740101;32;37476;-80
2022/11/19 02:06:32;;;;;;;32.25;16.42;;;;;;;2.34;70.68;98845.31;7739911;32;39057;-80
2022/11/19 02:10:55;;;;;;;34.13;15.60;;;;;;;2.77;69.48;98849.28;7725329;32;40590;-80
2022/11/19 02:15:39;;;;;;;29.20;16.87;;;;;;;2.48;69.86;98849.31;7739862;32;38721;-79
2022/11/19 02:20:16;;;;;;;30.62;16.30;;;;;;;2.30;70.91;98863.00;7739814;32;37980;-80
2022/11/19 02:24:43;;;;;;;33.25;16.05;;;;;;;2.00;71.21;98864.00;7730073;32;307883;-79
2022/11/19 02:29:14;;;;;;;34.78;18.55;;;;;;;2.03;71.39;98882.34;7739739;32;40904;-81
2022/11/19 02:33:49;;;;;;;32.50;16.75;;;;;;;2.25;71.90;98896.78;7739262;32;37753;-80
2022/11/19 02:38:09;;;;;;;32.17;16.83;;;;;;;2.70;69.30;98910.53;7739600;32;38051;-80
2022/11/19 02:42:31;;;;;;;33.30;17.65;;;;;;;2.26;70.01;98929.91;7739486;32;40256;-79
2022/11/19 02:46:52;;;;;;;32.92;16.37;;;;;;;2.27;69.23;98930.72;7739353;32;40774;-80
2022/11/19 02:51:08;;;;;;;35.67;18.48;;;;;;;1.53;70.67;98932.09;7725851;32;37697;-80
2022/11/19 02:55:26;;;;;;;36.22;17.37;;;;;;;2.01;69.58;98933.69;7713005;32;37986;-80
2022/11/19 03:04:40;;;;;;;30.48;13.70;;;;;;;1.97;69.31;98948.66;7739273;32;41142;-80
2022/11/19 03:08:56;;;;;;;29.48;15.65;;;;;;;1.34;71.18;98971.66;7739152;32;38437;-80
2022/11/19 03:18:04;;;;;;;36.45;16.37;;;;;;;1.61;70.76;98987.34;7727663;32;39345;-79
2022/11/19 03:22:41;;;;;;;33.47;15.95;;;;;;;1.52;71.31;99004.84;7725644;32;39850;-79
2022/11/19 03:27:30;;;;;;;30.92;16.05;;;;;;;1.47;71.84;98998.31;7726342;32;38045;-79
2022/11/19 03:31:50;;;;;;;36.78;16.10;;;;;;;1.78;70.43;98995.53;7739059;32;36120;-80
2022/11/19 03:36:21;;;;;;;32.38;15.52;;;;;;;1.81;69.60;98971.69;7725599;32;39935;-80
2022/11/19 03:40:38;;;;;;;36.65;16.67;;;;;;;1.70;69.64;99002.06;7726308;32;40843;-80
2022/11/19 03:45:00;;;;;;;34.10;17.05;;;;;;;2.05;68.59;99009.31;7698854;32;37973;-80
2022/11/19 03:49:19;;;;;;;35.17;16.37;;;;;;;1.68;70.77;99014.94;7700714;32;37668;-80
2022/11/19 03:53:36;;;;;;;33.97;15.77;;;;;;;2.41;68.68;99028.91;7738632;32;40485;-79
2022/11/19 03:57:52;;;;;;;34.50;16.12;;;;;;;1.88;69.69;99042.28;7725021;32;39798;-79
2022/11/19 04:02:10;;;;;;;33.95;16.55;;;;;;;1.42;69.99;99048.41;7724727;32;37892;-80
2022/11/19 04:06:26;;;;;;;31.98;17.12;;;;;;;1.82;68.79;99051.25;7724952;32;37127;-79
2022/11/19 04:10:43;;;;;;;31.52;16.65;;;;;;;1.46;70.55;99045.03;7738451;32;39575;-79
2022/11/19 04:14:59;;;;;;;33.08;16.37;;;;;;;1.37;70.91;99059.84;7738538;32;39896;-80
2022/11/19 04:19:16;;;;;;;35.22;17.55;;;;;;;2.19;69.06;99059.12;7737703;32;37920;-79
2022/11/19 04:23:33;;;;;;;35.42;17.50;;;;;;;2.42;68.29;99055.56;7738409;32;37218;-80
2022/11/19 04:27:49;;;;;;;34.53;16.23;;;;;;;2.84;67.02;99059.91;7724502;32;39398;-80
2022/11/19 04:32:06;;;;;;;33.05;16.87;;;;;;;3.01;66.62;99062.69;7738204;32;40011;-80
2022/11/19 04:36:22;;;;;;;32.25;16.40;;;;;;;3.14;65.94;99089.34;7738164;32;37825;-79
2022/11/19 04:40:38;;;;;;;33.03;15.60;;;;;;;3.43;65.23;99091.19;7737348;32;36938;-80
2022/11/19 04:44:55;;;;;;;34.47;16.42;;;;;;;3.36;65.50;99094.87;7737811;32;39504;-80
2022/11/19 04:49:11;;;;;;;32.70;15.45;;;;;;;3.69;63.78;99100.53;7737875;32;39926;-81
2022/11/19 04:53:27;;;;;;;34.28;16.95;;;;;;;3.84;63.41;99116.16;7737751;32;38003;-80
2022/11/19 04:57:44;;;;;;;34.33;16.50;;;;;;;3.31;64.36;99129.81;7737968;32;38096;-80
2022/11/19 05:02:00;;;;;;;30.30;16.12;;;;;;;3.50;63.53;99134.97;7737854;32;39300;-80
2022/11/19 05:06:16;;;;;;;30.88;15.80;;;;;;;2.73;65.06;99147.72;7724407;32;39299;-80
2022/11/19 05:10:33;;;;;;;28.10;14.70;;;;;;;2.50;65.99;99135.13;7737309;32;38495;-80
2022/11/19 05:14:49;;;;;;;34.13;15.35;;;;;;;2.18;66.74;99143.53;7737808;32;36080;-79
2022/11/19 05:19:05;;;;;;;30.77;14.57;;;;;;;2.21;66.43;99151.12;7738034;32;38899;-80
2022/11/19 05:23:23;;;;;;;31.58;15.13;;;;;;;2.25;65.81;99164.94;7737204;32;40782;-79
2022/11/19 05:27:39;;;;;;;31.12;16.40;;;;;;;2.33;66.61;99166.44;7723704;32;38714;-79
2022/11/19 05:31:55;;;;;;;30.35;16.10;;;;;;;1.59;67.98;99170.28;7736159;32;37160;-80
2022/11/19 05:36:11;;;;;;;31.65;16.52;;;;;;;1.67;68.32;99185.25;7736760;32;39428;-80
2022/11/19 05:40:28;;;;;;;31.08;15.77;;;;;;;1.88;66.92;99192.00;7736377;32;39890;-81
2022/11/19 06:14:27;;;;;;;32.13;16.92;;;;;;;1.90;66.71;99232.91;8024943;26;20127;-81
2022/11/19 06:18:43;;;;;;;35.25;16.85;;;;;;;2.34;65.69;99236.16;7722566;32;37141;-81
2022/11/19 06:22:59;;;;;;;35.30;17.92;;;;;;;2.39;65.64;99244.38;7736278;32;39293;-81
2022/11/19 06:27:16;;;;;;;33.90;17.70;;;;;;;2.32;65.55;99259.78;7753174;32;40040;-81
2022/11/19 06:31:33;;;;;;;30.37;16.12;;;;;;;2.34;65.85;99267.63;7762963;32;37897;-83
2022/11/19 06:35:49;;;;;;;35.63;18.17;;;;;;;1.99;66.87;99279.13;7762888;32;37182;-81
2022/11/19 06:40:06;;;;;;;34.60;17.27;;;;;;;2.43;65.21;99288.59;7754833;32;39630;-83
2022/11/19 06:44:23;;;;;;;38.55;19.58;;;;;;;2.75;64.18;99292.87;7739348;32;40023;-82
2022/11/19 06:48:40;;;;;;;33.58;16.77;;;;;;;2.15;65.31;99315.28;7739435;32;37868;-81
2022/11/19 06:52:57;;;;;;;40.53;17.95;;;;;;;2.25;64.68;99294.84;7739645;32;36997;-82
2022/11/19 06:57:13;;;;;;;33.67;16.62;;;;;;;2.13;65.24;99290.50;7739415;32;40103;-81
2022/11/19 07:01:29;;;;;;;34.42;17.87;;;;;;;2.62;64.13;99294.72;7739310;32;39973;-82
2022/11/19 07:05:53;;;;;;;33.40;16.23;;;;;;;2.21;64.68;99319.78;7739287;32;38730;-83
2022/11/19 07:10:09;;;;;;;37.05;17.50;;;;;;;2.44;64.05;99321.69;7739474;32;37307;-81
2022/11/19 07:14:25;;;;;;;33.53;16.37;;;;;;;2.10;64.85;99329.41;7739078;32;39327;-82
2022/11/19 07:18:42;;;;;;;34.63;17.27;;;;;;;2.52;64.54;99332.16;7739144;32;40816;-82
2022/11/19 07:22:58;;;;;;;34.70;16.90;;;;;;;2.90;63.35;99333.62;7738964;32;36775;-83
2022/11/19 07:27:15;;;;;;;37.65;19.02;;;;;;;2.95;64.06;99320.28;7739158;32;37841;-82
2022/11/19 07:31:32;;;;;;;41.88;18.85;;;;;;;2.81;64.05;99324.22;7739108;32;39420;-82
2022/11/19 07:35:49;;;;;;;37.30;18.85;;;;;;;3.66;62.28;99322.91;7738917;32;40648;-82
2022/11/19 07:40:06;;;;;;;35.17;19.20;;;;;;;3.48;61.29;99325.75;7738885;32;37885;-82
2022/11/19 07:44:22;;;;;;;32.30;17.12;;;;;;;3.69;60.31;99314.34;7738939;32;37903;-83
2022/11/19 07:48:38;;;;;;;35.97;17.35;;;;;;;3.26;60.71;99328.22;7738846;32;39422;-82
2022/11/19 07:52:58;;;;;;;39.22;18.95;;;;;;;3.56;60.53;99323.50;7737793;32;40563;-83
2022/11/19 07:57:14;;;;;;;38.63;19.00;;;;;;;2.69;63.36;99332.31;7738716;32;37789;-84
2022/11/19 08:01:31;;;;;;;42.20;19.02;;;;;;;2.34;63.91;99356.41;7738491;32;37635;-83
2022/11/19 08:05:47;;;;;;;39.08;18.37;;;;;;;2.29;64.39;99359.78;7738669;32;39310;-83
2022/11/19 08:10:05;;;;;;;39.20;18.12;;;;;;;2.74;65.23;99355.81;7724915;32;40904;-82
2022/11/19 08:14:25;;;;;;;35.65;17.23;;;;;;;2.95;62.78;99349.06;7738396;32;37821;-81
2022/11/19 08:18:43;;;;;;;38.60;18.58;;;;;;;3.01;63.28;99346.25;7738525;32;37182;-82
2022/11/19 08:22:59;;;;;;;38.22;19.33;;;;;;;3.25;62.25;99351.66;7725058;32;38419;-84
2022/11/19 08:27:16;;;;;;;33.05;16.80;;;;;;;3.29;62.95;99366.28;7724501;32;39962;-84
2022/11/19 08:31:32;;;;;;;38.97;18.77;;;;;;;3.70;61.22;99372.59;7742615;32;37930;-83
2022/11/19 08:35:52;;;;;;;35.53;17.75;;;;;;;3.73;61.07;99379.41;7765178;32;37245;-83
2022/11/19 08:40:09;;;;;;;33.25;16.45;;;;;;;3.80;59.66;99398.97;7751798;32;39231;-83
2022/11/19 08:44:25;;;;;;;42.60;20.20;;;;;;;4.01;60.10;99394.00;7764973;32;40210;-83
2022/11/19 08:48:42;;;;;;;33.72;17.67;;;;;;;3.67;61.91;99402.72;7765010;32;37945;-83
2022/11/19 08:53:03;;;;;;;44.03;19.70;;;;;;;4.03;60.67;99392.69;7765040;32;37345;-82
2022/11/19 08:57:19;;;;;;;40.65;20.08;;;;;;;4.51;59.11;99391.47;7764834;32;38591;-75
2022/11/19 09:01:35;;;;;;;36.50;17.90;;;;;;;4.70;58.55;99404.78;7764648;32;40059;-72
2022/11/19 09:05:59;;;;;;;34.13;18.23;;;;;;;4.25;59.91;99397.44;7764491;32;37887;-73
2022/11/19 09:10:17;;;;;;;35.63;17.65;;;;;;;3.97;60.48;99409.84;7764568;32;37319;-83
2022/11/19 09:14:33;;;;;;;39.92;20.00;;;;;;;4.00;59.25;99436.34;7751691;32;39998;-82
2022/11/19 09:18:49;;;;;;;37.00;18.62;;;;;;;3.73;60.10;99430.63;7764484;32;40805;-82
2022/11/19 09:23:06;;;;;;;41.15;18.85;;;;;;;3.61;60.41;99429.81;7764336;32;37990;-82
2022/11/19 09:27:22;;;;;;;37.28;18.80;;;;;;;4.20;58.18;99430.53;7750522;32;37952;-82
2022/11/19 09:31:38;;;;;;;35.55;18.92;;;;;;;4.39;57.77;99435.78;7764137;32;39352;-83
2022/11/19 09:35:54;;;;;;;38.83;18.15;;;;;;;4.02;59.00;99453.13;7764023;32;39896;-82
2022/11/19 09:40:19;;;;;;;39.30;19.10;;;;;;;4.06;59.01;99458.84;7764495;32;37899;-81
2022/11/19 09:45:12;;;;;;;34.60;17.73;;;;;;;4.22;58.46;99465.38;7764382;32;38249;-82
2022/11/19 09:49:37;;;;;;;40.85;18.80;;;;;;;3.98;57.10;99462.72;7764021;32;40280;-82
2022/11/19 09:53:55;;;;;;;37.08;18.20;;;;;;;4.43;57.48;99470.16;7750637;32;40688;-83
2022/11/19 09:58:31;;;;;;;32.88;17.45;;;;;;;4.56;56.34;99469.06;7763671;32;38640;-83
2022/11/19 10:02:47;;;;;;;41.40;21.05;;;;;;;4.42;58.27;99479.31;7763572;32;37162;-82
2022/11/19 10:07:07;;;;;;;38.47;19.87;;;;;;;4.63;57.98;99458.13;7749616;32;40079;-83
2022/11/19 10:12:02;;;;;;;36.67;18.95;;;;;;;4.35;56.71;99467.81;7763446;32;39938;-76
2022/11/19 10:16:46;;;;;;;33.75;16.73;;;;;;;3.85;58.99;99461.09;7736009;32;37892;-82
2022/11/19 10:21:11;;;;;;;38.22;17.80;;;;;;;3.74;58.20;99473.53;7739732;32;36996;-84
2022/11/19 10:25:34;;;;;;;36.83;18.27;;;;;;;3.86;56.58;99476.22;7739554;32;40325;-80
2022/11/19 10:29:53;;;;;;;36.20;18.67;;;;;;;3.85;57.24;99471.06;7738333;32;39915;-81
2022/11/19 10:34:14;;;;;;;41.65;19.05;;;;;;;4.01;56.54;99454.16;7739366;32;38745;-81
2022/11/19 10:38:40;;;;;;;36.47;19.77;;;;;;;4.33;57.14;99468.06;7738225;32;36983;-82
2022/11/19 10:43:27;;;;;;;33.03;18.20;;;;;;;4.80;56.86;99455.47;7738241;32;39408;-80
2022/11/19 10:48:20;;;;;;;39.85;18.37;;;;;;;5.08;55.72;99460.81;7727299;32;40814;-81
2022/11/19 10:52:42;;;;;;;34.65;17.95;;;;;;;5.36;53.33;99452.91;7738157;32;37786;-80
2022/11/19 10:56:59;;;;;;;40.80;18.83;;;;;;;4.53;53.31;99474.09;7737989;32;38025;-80
2022/11/19 11:01:36;;;;;;;42.78;20.12;;;;;;;4.97;53.79;99466.31;7737815;32;40055;-81
2022/11/19 11:06:05;;;;;;;37.13;19.67;;;;;;;5.35;53.59;99459.37;7739021;32;39878;-81
2022/11/19 11:10:31;;;;;;;36.45;20.23;;;;;;;5.45;51.98;99456.84;7738983;32;38845;-81
2022/11/19 11:14:51;;;;;;;34.28;17.48;;;;;;;5.68;51.43;99458.53;7753952;32;37273;-81
2022/11/19 11:19:15;;;;;;;35.40;18.48;;;;;;;5.08;52.92;99470.81;7766002;32;39327;-82
2022/11/19 11:23:33;;;;;;;39.42;18.87;;;;;;;4.86;51.58;99479.62;7752406;32;39682;-83
2022/11/19 11:28:11;;;;;;;39.17;19.05;;;;;;;5.32;51.52;99478.78;7764795;32;37829;-82
2022/11/19 11:32:31;;;;;;;35.33;17.48;;;;;;;4.78;53.59;99487.31;7765795;32;37955;-81
2022/11/19 11:36:47;;;;;;;34.60;16.77;;;;;;;4.38;52.78;99494.34;7765826;32;40165;-82
2022/11/19 11:41:09;;;;;;;37.95;17.73;;;;;;;4.55;52.44;99493.59;7751801;32;39723;-81
2022/11/19 11:45:45;;;;;;;36.70;18.85;;;;;;;5.12;51.96;99493.56;7753886;32;37986;-80
2022/11/19 11:50:05;;;;;;;35.70;17.17;;;;;;;4.86;52.86;99495.00;7765657;32;37192;-84
2022/11/19 11:54:21;;;;;;;56.45;18.40;;;;;;;4.32;53.21;99511.47;7752080;32;38904;-85
2022/11/19 11:58:38;;;;;;;40.35;18.55;;;;;;;4.64;55.47;99494.84;7751906;32;40475;-86
2022/11/19 12:03:03;;;;;;;35.47;16.40;;;;;;;4.66;52.66;99498.13;7751494;32;38658;-80
2022/11/19 12:07:47;;;;;;;37.33;18.77;;;;;;;4.54;51.76;99508.16;7765403;32;37295;-80
2022/11/19 12:12:22;;;;;;;37.25;18.05;;;;;;;4.58;51.35;99506.63;7765400;32;39364;-80
2022/11/19 12:16:53;;;;;;;33.20;17.45;;;;;;;5.34;50.76;99507.22;7752506;32;39721;-80
2022/11/19 12:21:21;;;;;;;34.55;18.12;;;;;;;4.85;52.13;99494.19;7765224;32;38759;-80
2022/11/19 12:25:50;;;;;;;35.17;18.83;;;;;;;5.02;50.79;99485.31;7765232;32;37140;-80
2022/11/19 12:30:23;;;;;;;33.08;18.33;;;;;;;5.84;51.33;99478.53;7752481;32;39255;-80
2022/11/19 12:34:57;;;;;;;35.38;17.73;;;;;;;5.71;50.10;99473.44;7764171;32;40547;-79
2022/11/19 12:39:41;;;;;;;34.47;17.77;;;;;;;6.10;49.99;99463.47;7726374;32;37964;-80
2022/11/19 12:43:59;;;;;;;30.90;17.55;;;;;;;6.40;49.84;99467.69;7748270;32;37191;-80
2022/11/19 12:48:22;;;;;;;35.85;17.95;;;;;;;6.59;49.62;99457.34;7726054;32;39397;-79
2022/11/19 12:53:02;;;;;;;32.55;17.62;;;;;;;6.73;47.53;99458.56;7752882;32;39963;-80
2022/11/19 12:57:38;;;;;;;38.67;18.95;;;;;;;6.81;48.26;99462.69;7764908;32;37681;-80
2022/11/19 13:01:56;;;;;;;36.20;18.35;;;;;;;6.40;48.15;99467.69;7747259;32;37096;-80
2022/11/19 13:06:24;;;;;;;39.17;18.37;;;;;;;6.25;48.54;99467.47;7743238;32;39821;-80
2022/11/19 13:10:45;;;;;;;38.72;19.70;;;;;;;5.96;49.23;99471.16;7733253;32;40791;-81
2022/11/19 13:15:30;;;;;;;35.65;18.75;;;;;;;6.14;49.81;99471.91;7724141;32;38747;-81
2022/11/19 13:19:51;;;;;;;38.83;18.15;;;;;;;6.22;49.70;99479.62;7757592;32;37193;-78
2022/11/19 13:24:20;;;;;;;30.02;16.17;;;;;;;6.03;50.26;99487.22;7763960;32;39093;-80
2022/11/19 13:28:41;;;;;;;31.58;15.77;;;;;;;6.23;48.25;99478.56;7751553;32;40712;-78
2022/11/19 13:33:16;;;;;;;34.85;16.67;;;;;;;5.49;48.30;99490.44;7725293;32;37882;-78
2022/11/19 13:37:58;;;;;;;31.25;15.38;;;;;;;5.56;48.51;99504.59;7725280;32;37156;-78
2022/11/19 13:46:58;;;;;;;33.58;16.02;;;;;;;6.09;48.77;99494.34;7737256;32;40537;-81
2022/11/19 13:51:28;;;;;;;38.97;15.38;;;;;;;5.97;50.06;99499.84;7723383;32;38721;-72
2022/11/19 13:55:45;;;;;;;34.90;17.12;;;;;;;6.08;55.61;99500.00;7723771;32;37257;-81
2022/11/19 14:00:26;;;;;;;48.45;17.35;;;;;;;6.66;49.67;99492.38;7723012;32;39267;-79
2022/11/19 14:05:31;;;;;;;31.58;17.33;;;;;;;6.60;48.29;99518.53;7723811;32;39951;-79
2022/11/19 14:10:02;;;;;;;35.42;16.77;;;;;;;6.58;49.14;99510.66;7723687;32;37954;-80
2022/11/19 14:29:03;;;;;;;36.60;17.33;;;;;;;6.27;51.17;99520.28;7736272;32;37699;-83
2022/11/19 14:33:47;;;;;;;33.35;17.20;;;;;;;6.08;52.83;99527.06;7722334;32;37985;-80
2022/11/19 14:38:19;;;;;;;33.30;18.00;;;;;;;6.45;51.08;99521.06;7735936;32;39283;-80
2022/11/19 14:44:07;;;;;;;33.95;16.77;;;;;;;6.30;50.31;99525.22;7735751;32;39997;-81
2022/11/19 14:47:25;;;;;;;32.78;17.52;;;;;;;6.37;50.94;99501.47;7740874;32;38698;-80
2022/11/19 14:51:53;;;;;;;33.88;16.90;;;;;;;6.07;52.67;99510.03;7724684;32;37234;-80
2022/11/19 14:56:14;;;;;;;43.87;16.85;;;;;;;6.47;52.55;99481.00;7730580;32;39253;-81
2022/11/19 15:00:36;;;;;;;35.78;17.42;;;;;;;6.19;53.77;99496.34;7721369;32;39404;-82
2022/11/19 15:05:00;;;;;;;31.73;15.70;;;;;;;6.16;53.41;99496.88;7735207;32;38683;-83
2022/11/19 15:09:50;;;;;;;30.65;16.40;;;;;;;6.37;53.02;99504.19;7731004;32;37094;-84
2022/11/19 15:14:28;;;;;;;34.47;16.00;;;;;;;6.07;53.90;99522.72;7738420;32;40041;-84
2022/11/19 15:18:44;;;;;;;34.20;17.35;;;;;;;5.86;55.55;99535.91;7724253;32;40176;-85
2022/11/19 15:23:34;;;;;;;32.08;15.95;;;;;;;6.07;55.24;99528.13;7738756;32;38460;-85
2022/11/19 15:28:00;;;;;;;30.27;15.75;;;;;;;5.77;56.36;99545.50;7722992;32;36291;-87
2022/11/19 15:32:35;;;;;;;31.62;17.37;;;;;;;5.64;56.75;99544.78;7726032;32;40136;-85
2022/11/19 15:37:01;;;;;;;29.52;17.08;;;;;;;5.69;55.98;99541.34;7739425;32;38997;-85
2022/11/19 15:41:22;;;;;;;36.53;17.92;;;;;;;5.53;56.24;99526.72;7738727;32;38648;-85
2022/11/19 15:45:46;;;;;;;35.45;19.23;;;;;;;5.82;54.84;99532.88;7714878;32;37160;-87
2022/11/19 15:50:03;;;;;;;38.85;20.40;;;;;;;5.76;53.80;99541.16;7752601;32;39055;-85
2022/11/19 15:54:24;;;;;;;38.05;20.52;;;;;;;5.58;55.63;99526.00;7750048;32;40794;-88
2022/11/19 15:58:45;;;;;;;37.42;20.75;;;;;;;5.37;54.88;99522.13;7752246;32;37734;-89
2022/11/19 16:03:02;;;;;;;41.15;22.70;;;;;;;5.93;53.73;99524.91;7743562;32;38058;-89
2022/11/19 16:07:23;;;;;;;40.97;21.15;;;;;;;5.96;53.49;99519.84;7724489;32;39375;-87
2022/11/19 16:20:57;;;;;;;35.13;17.20;;;;;;;5.75;55.28;99523.28;7727077;32;37159;-82
2022/11/19 16:25:34;;;;;;;36.70;18.12;;;;;;;5.58;54.94;99523.28;7747174;32;40126;-82
2022/11/19 16:29:51;;;;;;;32.72;17.55;;;;;;;5.38;53.85;99521.06;7765292;32;40811;-82
2022/11/19 16:34:20;;;;;;;36.13;18.92;;;;;;;5.17;54.65;99528.78;7751448;32;37532;-82
2022/11/19 16:38:40;;;;;;;35.33;18.30;;;;;;;5.01;55.05;99529.59;7752481;32;37977;-83
2022/11/19 16:42:59;;;;;;;36.83;19.55;;;;;;;5.08;56.19;99536.47;7735602;32;39874;-84
2022/11/19 16:47:48;;;;;;;36.40;18.08;;;;;;;5.18;56.72;99541.25;7724729;32;38742;-82
2022/11/19 16:52:06;;;;;;;40.70;18.23;;;;;;;5.53;57.19;99526.72;7732993;32;37774;-82
2022/11/19 16:56:23;;;;;;;36.70;18.95;;;;;;;4.98;58.95;99540.88;7765080;32;38084;-82
2022/11/19 17:00:44;;;;;;;38.38;17.95;;;;;;;4.76;60.39;99551.50;7751265;32;39375;-84
2022/11/19 17:05:08;;;;;;;34.05;17.80;;;;;;;5.41;58.39;99559.22;7751610;32;40858;-87
2022/11/19 17:09:35;;;;;;;32.78;17.12;;;;;;;5.17;59.61;99566.63;7751318;32;39092;-86
2022/11/19 17:13:51;;;;;;;32.75;17.37;;;;;;;5.02;60.71;99569.88;7751670;32;37711;-84
2022/11/19 17:18:16;;;;;;;32.80;16.30;;;;;;;5.12;60.36;99571.94;7764790;32;40073;-85
2022/11/19 17:22:35;;;;;;;33.45;16.62;;;;;;;5.21;60.41;99559.69;7762869;32;40943;-87
2022/11/19 17:26:51;;;;;;;34.03;17.50;;;;;;;4.99;61.21;99562.25;7764559;32;37921;-84
2022/11/19 17:31:27;;;;;;;33.92;18.62;;;;;;;5.20;61.05;99571.56;8057021;26;37197;-85
2022/11/19 17:35:46;;;;;;;32.95;17.92;;;;;;;4.71;62.31;99573.84;7762847;32;39387;-84
2022/11/19 17:40:03;;;;;;;36.17;18.60;;;;;;;4.97;61.75;99587.88;7763698;32;39307;-83
2022/11/19 17:44:33;;;;;;;35.80;17.70;;;;;;;5.08;61.49;99603.22;7763504;32;37967;-82
2022/11/19 17:48:50;;;;;;;36.65;18.83;;;;;;;4.98;61.37;99598.44;7763969;32;38132;-83
2022/11/19 17:53:07;;;;;;;35.55;17.80;;;;;;;5.14;61.16;99604.97;7763897;32;39923;-84
2022/11/19 17:57:23;;;;;;;36.42;18.90;;;;;;;5.08;60.96;99611.31;7763685;32;40017;-84
2022/11/19 18:01:40;;;;;;;35.90;17.77;;;;;;;4.92;61.55;99595.88;7763220;32;38530;-83
2022/11/19 18:05:56;;;;;;;33.65;17.85;;;;;;;4.54;62.53;99599.94;7763172;32;37271;-83
2022/11/19 18:10:13;;;;;;;36.38;19.00;;;;;;;4.70;62.66;99591.09;7750705;32;39986;-83
2022/11/19 18:14:29;;;;;;;34.72;18.50;;;;;;;4.93;61.13;99574.00;7762782;32;40034;-82
2022/11/19 18:18:46;;;;;;;41.35;19.52;;;;;;;5.05;60.81;99573.97;7762060;32;37935;-83
2022/11/19 18:23:03;;;;;;;38.42;18.40;;;;;;;5.19;60.88;99571.81;7760931;32;36965;-84
2022/11/19 18:27:19;;;;;;;34.47;17.12;;;;;;;4.53;62.95;99571.31;7761806;32;39526;-82
2022/11/19 18:31:43;;;;;;;40.28;18.33;;;;;;;4.83;61.90;99565.69;7761356;32;38160;-81
2022/11/19 18:35:59;;;;;;;30.60;16.55;;;;;;;4.99;60.69;99574.94;7748991;32;38669;-85
2022/11/19 18:40:17;;;;;;;37.53;18.35;;;;;;;4.70;61.41;99566.81;7766213;32;37908;-81
2022/11/19 18:44:33;;;;;;;39.28;18.17;;;;;;;4.54;61.90;99564.84;7765826;32;39387;-82
2022/11/19 18:48:50;;;;;;;39.88;16.75;;;;;;;4.43;62.33;99567.34;7765781;32;40047;-83
2022/11/19 18:53:09;;;;;;;37.33;18.27;;;;;;;4.49;63.15;99577.16;7765811;32;38008;-81
2022/11/19 18:57:26;;;;;;;35.72;17.90;;;;;;;4.79;61.23;99578.88;7749695;32;36322;-82
2022/11/19 19:01:42;;;;;;;36.97;17.73;;;;;;;4.64;60.96;99583.94;7763961;32;39195;-83
2022/11/19 19:06:06;;;;;;;39.45;18.37;;;;;;;4.57;61.57;99583.25;7763705;32;40825;-81
2022/11/19 19:10:24;;;;;;;31.02;16.77;;;;;;;4.59;61.66;99586.53;7763167;32;37424;-82
2022/11/19 19:14:42;;;;;;;33.13;16.73;;;;;;;4.54;61.60;99594.56;7762742;32;38009;-82
2022/11/19 19:19:00;;;;;;;35.17;17.10;;;;;;;4.69;60.66;99587.59;7761356;32;40033;-81
2022/11/19 19:23:16;;;;;;;31.52;16.00;;;;;;;4.65;60.68;99596.41;7762633;32;40104;-82
2022/11/19 19:27:33;;;;;;;34.45;15.30;;;;;;;4.77;60.03;99605.28;7762878;32;38735;-81
2022/11/19 19:31:50;;;;;;;37.58;17.67;;;;;;;4.55;60.79;99586.19;7762175;32;38114;-82
2022/11/19 19:36:07;;;;;;;36.10;17.65;;;;;;;4.12;62.04;99588.22;7748858;32;39343;-81
2022/11/19 19:40:23;;;;;;;37.20;17.10;;;;;;;4.55;60.97;99580.78;7763410;32;40828;-81
2022/11/19 19:44:40;;;;;;;35.97;16.60;;;;;;;4.28;62.04;99577.78;7749037;32;37828;-81
2022/11/19 19:48:57;;;;;;;40.50;17.65;;;;;;;3.99;62.44;99590.34;7761893;32;37963;-82
2022/11/19 19:53:13;;;;;;;39.03;17.42;;;;;;;4.13;61.92;99587.16;7761941;32;39030;-81
2022/11/19 19:57:29;;;;;;;32.65;16.92;;;;;;;3.76;63.27;99584.69;7749051;32;40913;-82
2022/11/19 20:01:49;;;;;;;35.53;16.45;;;;;;;3.62;63.39;99579.72;7762946;32;36411;-80
2022/11/19 20:06:07;;;;;;;33.78;16.37;;;;;;;3.86;62.86;99588.66;7763237;32;37095;-81
2022/11/19 20:10:24;;;;;;;30.25;15.30;;;;;;;3.83;63.09;99600.75;7762701;32;39401;-81
2022/11/19 20:14:41;;;;;;;38.80;16.52;;;;;;;4.00;62.81;99605.44;7762905;32;39050;-80
2022/11/19 20:18:59;;;;;;;32.78;16.15;;;;;;;4.03;62.18;99626.56;7760882;32;37972;-81
2022/11/19 20:23:15;;;;;;;34.20;16.33;;;;;;;3.67;63.05;99625.66;7762525;32;37285;-84
2022/11/19 20:27:32;;;;;;;30.52;15.85;;;;;;;3.87;63.08;99622.69;7762604;32;39387;-82
2022/11/19 20:31:48;;;;;;;29.95;14.90;;;;;;;3.60;63.77;99619.56;7764401;32;40074;-83
2022/11/19 20:36:06;;;;;;;34.05;15.68;;;;;;;3.83;62.92;99610.69;7764682;32;38627;-82
2022/11/19 20:40:22;;;;;;;30.50;15.43;;;;;;;3.81;63.03;99599.31;7764159;32;38319;-83
2022/11/19 20:44:38;;;;;;;30.85;14.23;;;;;;;3.55;63.15;99599.53;7764442;32;40202;-82
2022/11/19 20:48:54;;;;;;;28.52;14.43;;;;;;;3.54;62.76;99591.66;7764599;32;40584;-83
2022/11/19 20:53:11;;;;;;;28.42;14.30;;;;;;;3.45;63.25;99587.63;7764362;32;37799;-82
2022/11/19 20:57:27;;;;;;;28.42;14.52;;;;;;;3.96;61.22;99588.91;7763392;32;37945;-82
2022/11/19 21:01:43;;;;;;;31.90;14.25;;;;;;;3.85;61.28;99597.81;7763911;32;39348;-83
2022/11/19 21:06:01;;;;;;;27.25;13.95;;;;;;;3.63;61.93;99602.94;7763576;32;39451;-83
2022/11/19 21:10:17;;;;;;;31.95;15.75;;;;;;;3.32;62.36;99602.13;7761097;32;37891;-82
2022/11/19 21:14:34;;;;;;;30.23;14.65;;;;;;;3.33;63.00;99604.59;7762380;32;38017;-82
2022/11/19 21:18:51;;;;;;;29.60;15.32;;;;;;;3.54;61.96;99592.47;7762067;32;39147;-81
2022/11/19 21:23:07;;;;;;;34.20;15.40;;;;;;;3.65;61.42;99592.72;7763683;32;39857;-81